Accueil
METAR-TAF:

METAR-TAF

Aéroports :

Wallis, France

Aérodrome de Wallis-Hihifo

latitude: 13-14S, longitude: 176-10W, altitude: 23 m

METAR: absent

Heure: 07:19 (19:19 UTC)

Prévision

Le bulletin a été fait il y a 2 heures et 19 minutes, à 17:00 UTC
Prévision valable du 26 à 18 UTC au 27 à 18 UTC
Vent 8 kt de sud/sud-est
Visibilité 10 km ou plus
Quelques nuages à une hauteur de 2000 ft
Nuages épars à une hauteur de 3000 ft
Nuages fragmentés à une hauteur de 5000 ft
Probabilité 30% :
Temporairement
du 26 à 18 UTC au 27 à 18 UTC
Visibilité: 4000 m
Quelques nuages à une hauteur de 2000 ft, Cumulonimbus.
averses de pluie

TAF: NLWW 261700Z 2618/2718 15008KT 9999 FEW020 SCT030 BKN050 PROB30 TEMPO 2618/2718 4000 SHRA FEW020CB

Observations et prévisions météorologiques de plus de 4000 aéroports (messages METAR et TAF).

Les stations disponibles sont représentées par des disques jaunes et rouges sur la carte.

Passer la souris dessus pour voir le nom de la station.

Cliquer dessus pour voir les observations et prévisions météorologiques.

Pour changer de carte: cliquez sur les boutons verts avec une croix noire pour zoomer, sur le bouton vert avec un tiret pour effectuer un zoom arrière, ou sur les flèches vertes pour les cartes adjacentes.


METAR-TAF: